createdAt,value
2018-10-06T00:01:20.965Z,10.30
2018-10-06T00:03:49.309Z,10.30
2018-10-06T00:06:17.699Z,10.30
2018-10-06T00:08:46.136Z,10.30
2018-10-06T00:11:14.537Z,10.30
2018-10-06T00:13:42.866Z,10.20
2018-10-06T00:16:11.762Z,10.20
2018-10-06T00:18:40.096Z,10.20
2018-10-06T00:21:08.446Z,10.20
2018-10-06T00:23:36.882Z,10.10
2018-10-06T00:26:05.262Z,10.10
2018-10-06T00:28:33.568Z,10.10
2018-10-06T00:31:01.923Z,10.10
2018-10-06T00:33:30.242Z,10.10
2018-10-06T00:35:58.575Z,10.00
2018-10-06T00:38:26.880Z,10.10
2018-10-06T00:40:55.688Z,10.10
2018-10-06T00:43:24.004Z,10.10
2018-10-06T00:45:52.368Z,10.00
2018-10-06T00:48:20.700Z,10.00
2018-10-06T00:50:49.004Z,10.00
2018-10-06T00:53:17.323Z,9.90
2018-10-06T00:55:45.626Z,9.90
2018-10-06T00:58:13.952Z,9.90
2018-10-06T01:00:42.407Z,9.90
2018-10-06T01:03:10.702Z,9.80
2018-10-06T01:05:39.085Z,9.80
2018-10-06T01:08:07.393Z,9.80
2018-10-06T01:10:36.160Z,9.80
2018-10-06T01:13:04.524Z,9.70
2018-10-06T01:15:32.864Z,9.80
2018-10-06T01:18:01.404Z,9.80
2018-10-06T01:20:29.737Z,9.70
2018-10-06T01:22:58.054Z,9.70
2018-10-06T01:25:26.420Z,9.70
2018-10-06T01:27:54.750Z,9.60
2018-10-06T01:30:23.105Z,9.60
2018-10-06T01:32:51.469Z,9.50
2018-10-06T01:35:19.840Z,9.50
2018-10-06T01:37:48.322Z,9.50
2018-10-06T01:40:16.630Z,9.50
2018-10-06T01:42:44.980Z,9.40
2018-10-06T01:45:13.864Z,9.50
2018-10-06T01:47:42.197Z,9.40
2018-10-06T01:50:10.516Z,9.40
2018-10-06T01:52:38.854Z,9.40
2018-10-06T01:55:07.227Z,9.40
2018-10-06T01:57:35.579Z,9.40
2018-10-06T02:00:04.000Z,9.40
2018-10-06T02:02:32.327Z,9.40
2018-10-06T02:05:00.663Z,9.30
2018-10-06T02:07:29.007Z,9.30
2018-10-06T02:09:57.343Z,9.30
2018-10-06T02:12:25.781Z,9.30
2018-10-06T02:14:54.127Z,9.30
2018-10-06T02:17:23.207Z,9.30
2018-10-06T02:19:51.849Z,9.20
2018-10-06T02:22:20.188Z,9.20
2018-10-06T02:24:48.571Z,9.20
2018-10-06T02:27:16.881Z,9.20
2018-10-06T02:29:45.221Z,9.20
2018-10-06T02:32:13.571Z,9.20
2018-10-06T02:34:41.893Z,9.10
2018-10-06T02:37:10.199Z,9.10
2018-10-06T02:39:38.535Z,9.10
2018-10-06T02:42:06.928Z,9.10
2018-10-06T02:44:35.301Z,9.10
2018-10-06T02:47:03.625Z,9.00
2018-10-06T02:49:32.037Z,9.00
2018-10-06T02:52:00.421Z,9.00
2018-10-06T02:54:28.799Z,9.00
2018-10-06T02:56:57.166Z,9.00
2018-10-06T02:59:25.515Z,8.90
2018-10-06T03:01:53.884Z,8.90
2018-10-06T03:04:22.779Z,8.80
2018-10-06T03:06:51.052Z,8.80
2018-10-06T03:09:19.374Z,8.80
2018-10-06T03:11:48.214Z,8.70
2018-10-06T03:14:16.526Z,8.70
2018-10-06T03:16:44.879Z,8.70
2018-10-06T03:19:13.197Z,8.70
2018-10-06T03:21:41.574Z,8.70
2018-10-06T03:24:09.976Z,8.70
2018-10-06T03:26:38.311Z,8.70
2018-10-06T03:29:06.969Z,8.60
2018-10-06T03:31:35.316Z,8.60
2018-10-06T03:34:03.619Z,8.60
2018-10-06T03:36:31.939Z,8.60
2018-10-06T03:39:00.267Z,8.60
2018-10-06T03:41:28.628Z,8.60
2018-10-06T03:43:56.960Z,8.60
2018-10-06T03:46:25.283Z,8.60
2018-10-06T03:48:53.586Z,8.60
2018-10-06T03:51:22.170Z,8.60
2018-10-06T03:53:50.601Z,8.50
2018-10-06T03:56:25.524Z,8.50
2018-10-06T03:58:53.878Z,8.50
2018-10-06T04:01:22.200Z,8.50
2018-10-06T04:03:50.789Z,8.50
2018-10-06T04:06:19.170Z,8.50
2018-10-06T04:08:47.522Z,8.50
2018-10-06T04:11:15.894Z,8.40
2018-10-06T04:13:44.396Z,8.40
2018-10-06T04:16:12.710Z,8.40
2018-10-06T04:18:41.058Z,8.40
2018-10-06T04:21:09.357Z,8.30
2018-10-06T04:23:37.718Z,8.30
2018-10-06T04:26:06.044Z,8.30
2018-10-06T04:28:34.440Z,8.30
2018-10-06T04:31:02.732Z,8.30
2018-10-06T04:33:31.044Z,8.30
2018-10-06T04:35:59.420Z,8.30
2018-10-06T04:38:27.764Z,8.30
2018-10-06T04:40:56.096Z,8.20
2018-10-06T04:43:24.420Z,8.20
2018-10-06T04:45:52.768Z,8.20
2018-10-06T04:48:21.766Z,8.20
2018-10-06T04:50:50.090Z,8.20
2018-10-06T04:53:18.490Z,8.20
2018-10-06T04:55:46.870Z,8.20
2018-10-06T04:58:15.296Z,8.10
2018-10-06T05:00:44.366Z,8.10
2018-10-06T05:03:12.754Z,8.10
2018-10-06T05:05:41.116Z,8.10
2018-10-06T05:08:09.474Z,8.10
2018-10-06T05:10:37.783Z,8.10
2018-10-06T05:13:06.104Z,8.10
2018-10-06T05:15:34.439Z,8.10
2018-10-06T05:18:02.748Z,8.10
2018-10-06T05:20:31.104Z,8.10
2018-10-06T05:23:00.119Z,8.10
2018-10-06T05:25:28.460Z,8.00
2018-10-06T05:27:56.822Z,8.00
2018-10-06T05:30:25.232Z,8.00
2018-10-06T05:32:54.046Z,8.00
2018-10-06T05:35:22.360Z,8.00
2018-10-06T05:37:50.696Z,8.00
2018-10-06T05:40:19.018Z,8.00
2018-10-06T05:42:47.331Z,8.00
2018-10-06T05:45:15.665Z,8.00
2018-10-06T05:47:43.998Z,8.00
2018-10-06T05:50:12.571Z,8.00
2018-10-06T05:52:40.890Z,8.00
2018-10-06T05:55:09.257Z,8.00
2018-10-06T05:57:37.605Z,8.00
2018-10-06T06:00:05.980Z,8.00
2018-10-06T06:02:34.348Z,8.00
2018-10-06T06:05:02.678Z,8.00
2018-10-06T06:07:31.050Z,8.10
2018-10-06T06:09:59.623Z,8.00
2018-10-06T06:12:27.852Z,8.00
2018-10-06T06:14:56.261Z,8.10
2018-10-06T06:17:24.553Z,8.10
2018-10-06T06:19:52.889Z,8.10
2018-10-06T06:22:21.369Z,8.10
2018-10-06T06:24:49.705Z,8.10
2018-10-06T06:27:18.860Z,8.20
2018-10-06T06:29:47.169Z,8.20
2018-10-06T06:32:15.614Z,8.20
2018-10-06T06:34:43.908Z,8.30
2018-10-06T06:37:12.212Z,8.30
2018-10-06T06:39:40.555Z,8.40
2018-10-06T06:42:09.701Z,8.40
2018-10-06T06:44:38.208Z,8.40
2018-10-06T06:47:06.891Z,8.40
2018-10-06T06:49:35.414Z,8.40
2018-10-06T06:52:04.139Z,8.40
2018-10-06T06:54:32.536Z,8.50
2018-10-06T06:57:01.895Z,8.50
2018-10-06T06:59:30.387Z,8.50
2018-10-06T07:01:58.715Z,8.50
2018-10-06T07:04:27.055Z,8.60
2018-10-06T07:06:55.391Z,8.60
2018-10-06T07:09:23.725Z,8.70
2018-10-06T07:11:52.131Z,8.80
2018-10-06T07:14:20.456Z,8.80
2018-10-06T07:16:49.227Z,8.80
2018-10-06T07:19:17.596Z,8.80
2018-10-06T07:21:46.331Z,8.90
2018-10-06T07:24:14.803Z,8.90
2018-10-06T07:26:43.263Z,9.00
2018-10-06T07:29:11.594Z,9.00
2018-10-06T07:31:40.775Z,9.10
2018-10-06T07:34:09.349Z,9.20
2018-10-06T07:36:37.794Z,9.30
2018-10-06T07:39:06.948Z,9.40
2018-10-06T07:41:35.377Z,9.50
2018-10-06T07:44:03.831Z,9.50
2018-10-06T07:46:32.188Z,9.70
2018-10-06T07:49:00.588Z,9.80
2018-10-06T07:51:28.904Z,10.00
2018-10-06T07:53:57.260Z,10.10
2018-10-06T07:56:36.269Z,10.20
2018-10-06T07:59:06.265Z,10.30
2018-10-06T08:01:34.621Z,10.50
2018-10-06T08:04:02.944Z,10.70
2018-10-06T08:06:31.405Z,10.90
2018-10-06T08:08:59.741Z,11.00
2018-10-06T08:11:28.093Z,11.20
2018-10-06T08:13:56.416Z,11.30
2018-10-06T08:16:24.777Z,11.40
2018-10-06T08:18:53.109Z,11.60
2018-10-06T08:21:21.458Z,11.70
2018-10-06T08:23:49.841Z,11.90
2018-10-06T08:26:18.240Z,12.00
2018-10-06T08:28:46.639Z,12.00
2018-10-06T08:31:15.068Z,12.30
2018-10-06T08:33:43.394Z,12.40
2018-10-06T08:36:11.726Z,12.50
2018-10-06T08:38:40.135Z,12.80
2018-10-06T08:41:08.485Z,13.00
2018-10-06T08:43:36.789Z,13.30
2018-10-06T08:46:05.163Z,13.60
2018-10-06T08:48:33.545Z,13.90
2018-10-06T08:51:01.916Z,14.00
2018-10-06T08:53:30.327Z,14.20
2018-10-06T08:55:58.692Z,14.30
2018-10-06T08:58:27.020Z,14.40
2018-10-06T09:00:55.331Z,14.40
2018-10-06T09:03:23.689Z,14.50
2018-10-06T09:05:52.027Z,14.60
2018-10-06T09:08:20.739Z,14.90
2018-10-06T09:10:49.158Z,15.10
2018-10-06T09:13:17.434Z,15.40
2018-10-06T09:15:45.780Z,15.60
2018-10-06T09:18:14.807Z,15.90
2018-10-06T09:20:43.107Z,16.10
2018-10-06T09:23:12.067Z,16.20
2018-10-06T09:25:40.443Z,16.40
2018-10-06T09:28:08.802Z,16.50
2018-10-06T09:30:37.237Z,16.70
2018-10-06T09:33:05.649Z,16.80
2018-10-06T09:35:34.371Z,16.90
2018-10-06T09:38:02.747Z,17.10
2018-10-06T09:40:31.092Z,17.40
2018-10-06T09:42:59.488Z,17.70
2018-10-06T09:45:27.806Z,17.80
2018-10-06T09:47:56.325Z,17.90
2018-10-06T09:50:24.638Z,18.00
2018-10-06T09:52:52.975Z,18.00
2018-10-06T09:55:21.308Z,18.20
2018-10-06T09:57:49.647Z,18.30
2018-10-06T10:00:22.215Z,18.40
2018-10-06T10:02:55.887Z,18.40
2018-10-06T10:05:29.679Z,18.50
2018-10-06T10:07:57.917Z,18.50
2018-10-06T10:10:26.238Z,18.60
2018-10-06T10:12:54.616Z,18.80
2018-10-06T10:15:23.029Z,18.90
2018-10-06T10:17:51.965Z,19.00
2018-10-06T10:20:20.200Z,19.10
2018-10-06T10:22:48.540Z,19.10
2018-10-06T10:25:16.888Z,19.10
2018-10-06T10:27:45.212Z,19.10
2018-10-06T10:30:13.751Z,19.30
2018-10-06T10:32:42.077Z,19.50
2018-10-06T10:35:10.476Z,19.70
2018-10-06T10:37:38.865Z,19.80
2018-10-06T10:40:07.208Z,19.90
2018-10-06T10:42:35.585Z,19.90
2018-10-06T10:45:03.988Z,19.80
2018-10-06T10:47:32.361Z,19.70
2018-10-06T10:50:00.739Z,19.60
2018-10-06T10:52:29.061Z,19.60
2018-10-06T10:54:57.429Z,19.70
2018-10-06T10:57:25.771Z,19.90
2018-10-06T10:59:54.333Z,19.90
2018-10-06T11:02:22.748Z,20.00
2018-10-06T11:04:51.325Z,20.00
2018-10-06T11:07:20.773Z,20.00
2018-10-06T11:09:49.521Z,20.10
2018-10-06T11:12:18.310Z,20.10
2018-10-06T11:14:48.076Z,20.10
2018-10-06T11:17:16.613Z,20.10
2018-10-06T11:19:45.013Z,20.10
2018-10-06T11:22:13.394Z,20.10
2018-10-06T11:24:41.801Z,20.20
2018-10-06T11:27:11.424Z,20.30
2018-10-06T11:29:39.773Z,20.30
2018-10-06T11:32:08.145Z,20.40
2018-10-06T11:34:37.146Z,20.40
2018-10-06T11:37:05.506Z,20.40
2018-10-06T11:39:33.821Z,20.40
2018-10-06T11:42:02.156Z,20.50
2018-10-06T11:44:31.104Z,20.50
2018-10-06T11:46:59.454Z,20.50
2018-10-06T11:49:36.744Z,20.50
2018-10-06T11:52:07.234Z,20.50
2018-10-06T11:54:35.608Z,20.50
2018-10-06T11:57:03.960Z,20.50
2018-10-06T11:59:32.381Z,20.30
2018-10-06T12:02:00.728Z,20.40
2018-10-06T12:04:29.074Z,20.40
2018-10-06T12:06:57.417Z,20.40
2018-10-06T12:09:25.760Z,20.40
2018-10-06T12:11:54.110Z,20.40
2018-10-06T12:14:22.574Z,20.40
2018-10-06T12:16:50.917Z,20.40
2018-10-06T12:19:19.967Z,20.40
2018-10-06T12:21:48.355Z,20.40
2018-10-06T12:24:16.762Z,20.40
2018-10-06T12:26:45.175Z,20.30
2018-10-06T12:29:13.577Z,20.40
2018-10-06T12:31:41.921Z,20.40
2018-10-06T12:34:10.242Z,20.30
2018-10-06T12:36:38.740Z,20.30
2018-10-06T12:39:08.102Z,20.30
2018-10-06T12:41:36.701Z,20.40
2018-10-06T12:44:05.152Z,20.40
2018-10-06T12:46:33.531Z,20.30
2018-10-06T12:49:01.879Z,20.30
2018-10-06T12:51:30.298Z,20.30
2018-10-06T12:53:58.612Z,20.40
2018-10-06T12:56:26.971Z,20.30
2018-10-06T12:58:55.300Z,20.40
2018-10-06T13:01:24.233Z,20.40
2018-10-06T13:03:52.627Z,20.30
2018-10-06T13:06:20.976Z,20.30
2018-10-06T13:08:50.002Z,20.30
2018-10-06T13:11:18.356Z,20.20
2018-10-06T13:13:46.666Z,20.30
2018-10-06T13:16:15.026Z,20.20
2018-10-06T13:18:43.402Z,20.20
2018-10-06T13:21:11.774Z,20.20
2018-10-06T13:23:40.132Z,20.20
2018-10-06T13:26:08.610Z,20.20
2018-10-06T13:28:36.996Z,20.20
2018-10-06T13:31:05.348Z,20.20
2018-10-06T13:33:33.704Z,20.20
2018-10-06T13:36:02.157Z,20.20
2018-10-06T13:38:30.518Z,20.20
2018-10-06T13:40:58.940Z,20.10
2018-10-06T13:43:27.252Z,20.20
2018-10-06T13:45:55.612Z,20.10
2018-10-06T13:48:23.959Z,20.10
2018-10-06T13:50:52.309Z,20.20
2018-10-06T13:53:20.705Z,20.10
2018-10-06T13:55:49.043Z,20.20
2018-10-06T13:58:17.914Z,20.20
2018-10-06T14:00:46.363Z,20.20
2018-10-06T14:03:14.888Z,20.30
2018-10-06T14:05:43.892Z,20.20
2018-10-06T14:08:12.242Z,20.30
2018-10-06T14:10:40.605Z,20.30
2018-10-06T14:13:09.022Z,20.30
2018-10-06T14:15:37.354Z,20.30
2018-10-06T14:18:05.951Z,20.30
2018-10-06T14:20:34.401Z,20.40
2018-10-06T14:23:02.756Z,20.40
2018-10-06T14:25:31.821Z,20.40
2018-10-06T14:28:00.173Z,20.40
2018-10-06T14:30:28.531Z,20.40
2018-10-06T14:32:56.927Z,20.30
2018-10-06T14:35:25.291Z,20.30
2018-10-06T14:37:53.636Z,20.30
2018-10-06T14:40:22.063Z,20.30
2018-10-06T14:42:56.801Z,20.30
2018-10-06T14:45:25.179Z,20.30
2018-10-06T14:47:53.545Z,20.40
2018-10-06T14:50:21.872Z,20.50
2018-10-06T14:52:50.243Z,20.50
2018-10-06T14:55:18.617Z,20.50
2018-10-06T14:57:47.548Z,20.60
2018-10-06T15:00:17.138Z,20.80
2018-10-06T15:02:45.501Z,20.80
2018-10-06T15:05:14.503Z,20.80
2018-10-06T15:07:49.219Z,20.80
2018-10-06T15:10:17.648Z,20.80
2018-10-06T15:12:45.977Z,20.70
2018-10-06T15:15:14.404Z,20.60
2018-10-06T15:17:42.777Z,20.50
2018-10-06T15:20:11.240Z,20.50
2018-10-06T15:22:39.609Z,20.40
2018-10-06T15:25:08.020Z,20.40
2018-10-06T15:27:36.363Z,20.30
2018-10-06T15:30:05.355Z,20.30
2018-10-06T15:32:33.744Z,20.30
2018-10-06T15:35:02.168Z,20.30
2018-10-06T15:37:30.526Z,20.30
2018-10-06T15:39:58.934Z,20.30
2018-10-06T15:42:27.438Z,20.30
2018-10-06T15:44:55.792Z,20.30
2018-10-06T15:47:24.152Z,20.30
2018-10-06T15:49:52.518Z,20.30
2018-10-06T15:52:21.189Z,20.20
2018-10-06T15:54:49.700Z,20.20
2018-10-06T15:57:18.129Z,20.10
2018-10-06T15:59:46.499Z,20.10
2018-10-06T16:02:15.409Z,20.00
2018-10-06T16:04:43.762Z,19.90
2018-10-06T16:07:12.131Z,19.80
2018-10-06T16:09:40.489Z,19.70
2018-10-06T16:12:09.297Z,19.70
2018-10-06T16:14:37.673Z,19.70
2018-10-06T16:17:06.017Z,19.70
2018-10-06T16:19:34.376Z,19.60
2018-10-06T16:22:02.893Z,19.60
2018-10-06T16:24:31.221Z,19.50
2018-10-06T16:26:59.568Z,19.40
2018-10-06T16:29:27.929Z,19.20
2018-10-06T16:31:56.348Z,19.10
2018-10-06T16:34:24.734Z,19.00
2018-10-06T16:36:53.095Z,18.90
2018-10-06T16:39:22.036Z,18.80
2018-10-06T16:41:50.400Z,18.80
2018-10-06T16:44:18.740Z,18.80
2018-10-06T16:46:47.071Z,18.80
2018-10-06T16:49:15.409Z,18.80
2018-10-06T16:51:43.916Z,18.80
2018-10-06T16:54:12.314Z,18.70
2018-10-06T16:56:40.700Z,18.60
2018-10-06T16:59:09.568Z,18.50
2018-10-06T17:01:38.576Z,18.40
2018-10-06T17:04:06.998Z,18.30
2018-10-06T17:06:35.336Z,18.20
2018-10-06T17:09:04.938Z,18.10
2018-10-06T17:11:33.294Z,18.00
2018-10-06T17:14:01.664Z,17.90
2018-10-06T17:16:30.032Z,17.80
2018-10-06T17:18:58.376Z,17.80
2018-10-06T17:21:26.756Z,17.70
2018-10-06T17:23:55.206Z,17.70
2018-10-06T17:26:23.552Z,17.60
2018-10-06T17:28:51.974Z,17.60
2018-10-06T17:31:20.344Z,17.60
2018-10-06T17:33:48.655Z,17.70
2018-10-06T17:36:17.044Z,17.50
2018-10-06T17:38:45.487Z,17.50
2018-10-06T17:41:14.106Z,17.30
2018-10-06T17:43:42.465Z,17.10
2018-10-06T17:46:10.855Z,17.10
2018-10-06T17:48:39.506Z,17.00
2018-10-06T17:51:08.012Z,16.90
2018-10-06T17:53:36.457Z,16.90
2018-10-06T17:56:05.777Z,16.80
2018-10-06T17:58:38.497Z,16.70
2018-10-06T18:01:06.869Z,16.60
2018-10-06T18:03:37.202Z,16.60
2018-10-06T18:06:05.577Z,16.60
2018-10-06T18:08:33.944Z,16.60
2018-10-06T18:11:03.132Z,16.60
2018-10-06T18:13:31.452Z,16.60
2018-10-06T18:15:59.838Z,16.50
2018-10-06T18:18:28.248Z,16.40
2018-10-06T18:20:56.646Z,16.30
2018-10-06T18:23:25.003Z,16.20
2018-10-06T18:25:53.371Z,16.20
2018-10-06T18:28:21.662Z,16.10
2018-10-06T18:30:50.019Z,16.00
2018-10-06T18:33:18.513Z,16.00
2018-10-06T18:35:46.910Z,15.90
2018-10-06T18:38:15.215Z,15.90
2018-10-06T18:40:43.652Z,15.80
2018-10-06T18:43:12.080Z,15.80
2018-10-06T18:45:40.407Z,15.80
2018-10-06T18:48:08.756Z,15.70
2018-10-06T18:50:37.808Z,15.70
2018-10-06T18:53:06.195Z,15.60
2018-10-06T18:55:35.154Z,15.60
2018-10-06T18:58:03.508Z,15.50
2018-10-06T19:00:32.789Z,15.40
2018-10-06T19:03:01.518Z,15.30
2018-10-06T19:05:30.197Z,15.20
2018-10-06T19:07:58.866Z,15.10
2018-10-06T19:10:34.392Z,15.10
2018-10-06T19:13:03.030Z,15.00
2018-10-06T19:15:31.757Z,15.00
2018-10-06T19:18:00.494Z,15.00
2018-10-06T19:20:29.155Z,14.90
2018-10-06T19:22:57.865Z,14.90
2018-10-06T19:25:26.666Z,14.80
2018-10-06T19:27:56.209Z,14.80
2018-10-06T19:30:24.919Z,14.80
2018-10-06T19:32:53.590Z,14.70
2018-10-06T19:35:24.243Z,14.70
2018-10-06T19:37:53.007Z,14.70
2018-10-06T19:40:21.697Z,14.60
2018-10-06T19:42:50.431Z,14.60
2018-10-06T19:45:19.109Z,14.50
2018-10-06T19:47:47.805Z,14.40
2018-10-06T19:50:16.484Z,14.30
2018-10-06T19:52:45.195Z,14.20
2018-10-06T19:55:13.906Z,14.10
2018-10-06T19:57:42.612Z,14.10
2018-10-06T20:00:11.349Z,14.00
2018-10-06T20:02:40.040Z,14.00
2018-10-06T20:05:08.778Z,14.00
2018-10-06T20:07:37.459Z,14.00
2018-10-06T20:10:06.298Z,13.90
2018-10-06T20:12:35.043Z,13.90
2018-10-06T20:15:03.852Z,13.80
2018-10-06T20:17:32.541Z,13.80
2018-10-06T20:20:01.866Z,13.70
2018-10-06T20:22:30.513Z,13.70
2018-10-06T20:24:59.219Z,13.70
2018-10-06T20:27:28.210Z,13.60
2018-10-06T20:29:56.760Z,13.60
2018-10-06T20:32:25.473Z,13.60
2018-10-06T20:34:53.816Z,13.60
2018-10-06T20:37:22.221Z,13.50
2018-10-06T20:39:50.644Z,13.40
2018-10-06T20:42:19.020Z,13.40
2018-10-06T20:44:47.414Z,13.40
2018-10-06T20:47:16.021Z,13.40
2018-10-06T20:49:44.397Z,13.30
2018-10-06T20:52:12.758Z,13.30
2018-10-06T20:54:41.145Z,13.30
2018-10-06T20:57:09.504Z,13.20
2018-10-06T20:59:37.868Z,13.20
2018-10-06T21:02:06.590Z,13.10
2018-10-06T21:04:34.863Z,13.10
2018-10-06T21:07:03.365Z,13.10
2018-10-06T21:09:31.712Z,13.10
2018-10-06T21:12:00.084Z,13.00
2018-10-06T21:14:28.463Z,13.00
2018-10-06T21:16:57.515Z,13.00
2018-10-06T21:19:25.857Z,13.00
2018-10-06T21:21:54.370Z,12.90
2018-10-06T21:24:22.728Z,12.90
2018-10-06T21:26:51.253Z,12.90
2018-10-06T21:29:19.856Z,12.80
2018-10-06T21:31:48.431Z,12.80
2018-10-06T21:34:16.783Z,12.80
2018-10-06T21:36:45.173Z,12.70
2018-10-06T21:39:13.590Z,12.70
2018-10-06T21:41:41.927Z,12.60
2018-10-06T21:44:10.285Z,12.60
2018-10-06T21:46:38.701Z,12.50
2018-10-06T21:49:07.104Z,12.40
2018-10-06T21:51:35.547Z,12.40
2018-10-06T21:54:03.909Z,12.40
2018-10-06T21:56:32.797Z,12.40
2018-10-06T21:59:01.174Z,12.30
2018-10-06T22:01:29.682Z,12.30
2018-10-06T22:03:58.029Z,12.30
2018-10-06T22:06:26.373Z,12.20
2018-10-06T22:08:55.358Z,12.20
2018-10-06T22:11:24.220Z,12.10
2018-10-06T22:13:53.337Z,12.10
2018-10-06T22:16:22.039Z,12.00
2018-10-06T22:18:50.527Z,12.00
2018-10-06T22:21:18.880Z,12.00
2018-10-06T22:23:47.778Z,12.00
2018-10-06T22:26:16.121Z,11.90
2018-10-06T22:28:44.447Z,11.90
2018-10-06T22:31:12.784Z,11.80
2018-10-06T22:33:42.022Z,11.80
2018-10-06T22:36:11.141Z,11.80
2018-10-06T22:38:39.469Z,11.80
2018-10-06T22:41:07.934Z,11.80
2018-10-06T22:43:36.318Z,11.70
2018-10-06T22:46:04.632Z,11.70
2018-10-06T22:48:32.951Z,11.70
2018-10-06T22:51:01.325Z,11.60
2018-10-06T22:53:30.082Z,11.60
2018-10-06T22:55:58.431Z,11.50
2018-10-06T22:58:26.775Z,11.50
2018-10-06T23:00:55.729Z,11.50
2018-10-06T23:03:24.253Z,11.50
2018-10-06T23:05:52.667Z,11.40
2018-10-06T23:08:21.015Z,11.40
2018-10-06T23:10:49.350Z,11.40
2018-10-06T23:13:17.671Z,11.40
2018-10-06T23:15:45.995Z,11.40
2018-10-06T23:18:14.380Z,11.30
2018-10-06T23:20:42.747Z,11.30
2018-10-06T23:23:11.107Z,11.30
2018-10-06T23:25:39.465Z,11.30
2018-10-06T23:28:07.805Z,11.20
2018-10-06T23:30:36.209Z,11.30
2018-10-06T23:33:04.614Z,11.10
2018-10-06T23:35:33.001Z,11.10
2018-10-06T23:38:01.351Z,11.10
2018-10-06T23:40:29.665Z,11.10
2018-10-06T23:42:58.025Z,11.20
2018-10-06T23:45:26.389Z,11.10
2018-10-06T23:47:55.303Z,11.10
2018-10-06T23:50:24.402Z,11.10
2018-10-06T23:52:52.740Z,11.00
2018-10-06T23:55:21.789Z,11.00
2018-10-06T23:57:50.159Z,11.00
